createdAt,value
2019-04-21T00:00:35.506Z,67.70
2019-04-21T00:03:11.461Z,68.10
2019-04-21T00:05:58.624Z,67.60
2019-04-21T00:08:33.409Z,67.80
2019-04-21T00:11:02.846Z,68.00
2019-04-21T00:13:23.760Z,67.90
2019-04-21T00:15:46.816Z,68.50
2019-04-21T00:18:47.906Z,68.50
2019-04-21T00:21:18.321Z,68.50
2019-04-21T00:23:56.186Z,68.10
2019-04-21T00:26:29.074Z,68.50
2019-04-21T00:29:04.087Z,68.90
2019-04-21T00:31:30.865Z,69.30
2019-04-21T00:33:46.717Z,68.70
2019-04-21T00:36:20.604Z,68.00
2019-04-21T00:39:18.539Z,68.10
2019-04-21T00:41:40.232Z,68.20
2019-04-21T00:44:00.644Z,67.90
2019-04-21T00:46:34.769Z,68.50
2019-04-21T00:49:09.516Z,68.70
2019-04-21T00:51:54.322Z,68.70
2019-04-21T00:54:16.966Z,69.40
2019-04-21T00:56:49.680Z,69.60
2019-04-21T00:59:19.279Z,70.00
2019-04-21T01:01:46.171Z,69.80
2019-04-21T01:04:17.092Z,70.10
2019-04-21T01:06:49.674Z,69.90
2019-04-21T01:09:17.406Z,70.10
2019-04-21T01:11:49.477Z,70.00
2019-04-21T01:14:32.888Z,70.60
2019-04-21T01:16:56.059Z,70.90
2019-04-21T01:19:20.967Z,71.30
2019-04-21T01:21:31.667Z,72.00
2019-04-21T01:24:08.222Z,71.60
2019-04-21T01:26:43.783Z,71.80
2019-04-21T01:29:22.799Z,71.60
2019-04-21T01:31:48.416Z,72.50
2019-04-21T01:34:20.624Z,72.60
2019-04-21T01:36:54.767Z,72.20
2019-04-21T01:39:29.682Z,72.60
2019-04-21T01:41:59.109Z,73.10
2019-04-21T01:44:36.098Z,73.50
2019-04-21T01:46:51.968Z,73.10
2019-04-21T01:49:24.258Z,73.80
2019-04-21T01:52:13.575Z,74.00
2019-04-21T01:54:55.988Z,74.30
2019-04-21T01:57:24.158Z,74.10
2019-04-21T01:59:51.172Z,74.30
2019-04-21T02:02:29.387Z,74.70
2019-04-21T02:05:06.971Z,75.40
2019-04-21T02:07:27.038Z,74.90
2019-04-21T02:10:09.160Z,75.30
2019-04-21T02:12:31.691Z,75.50
2019-04-21T02:15:11.551Z,75.80
2019-04-21T02:17:38.694Z,76.30
2019-04-21T02:20:00.610Z,76.20
2019-04-21T02:22:54.937Z,76.70
2019-04-21T02:27:36.438Z,77.00
2019-04-21T02:30:22.209Z,77.90
2019-04-21T02:35:40.607Z,77.70
2019-04-21T02:40:35.674Z,78.10
2019-04-21T02:43:02.678Z,78.30
2019-04-21T02:45:25.113Z,78.50
2019-04-21T02:48:08.765Z,78.40
2019-04-21T02:50:30.457Z,78.60
2019-04-21T02:52:55.472Z,78.70
2019-04-21T02:55:22.176Z,79.00
2019-04-21T02:58:06.144Z,79.20
2019-04-21T03:00:59.622Z,79.00
2019-04-21T03:06:28.990Z,79.40
2019-04-21T03:08:58.798Z,79.70
2019-04-21T03:11:31.308Z,80.10
2019-04-21T03:14:08.946Z,80.50
2019-04-21T03:16:28.540Z,80.00
2019-04-21T03:21:31.938Z,80.20
2019-04-21T03:24:12.868Z,80.60
2019-04-21T03:26:44.937Z,80.80
2019-04-21T03:29:05.821Z,80.80
2019-04-21T03:36:56.534Z,80.70
2019-04-21T03:39:01.230Z,81.10
2019-04-21T03:46:52.594Z,81.80
2019-04-21T03:49:22.657Z,82.10
2019-04-21T03:54:09.241Z,82.40
2019-04-21T03:56:59.099Z,82.50
2019-04-21T03:59:11.568Z,82.60
2019-04-21T04:01:58.433Z,82.20
2019-04-21T04:10:11.776Z,82.40
2019-04-21T04:12:54.784Z,82.10
2019-04-21T04:15:28.982Z,81.60
2019-04-21T04:17:46.796Z,81.80
2019-04-21T04:22:57.668Z,82.30
2019-04-21T04:25:20.875Z,82.60
2019-04-21T04:28:03.498Z,82.60
2019-04-21T04:30:21.600Z,82.90
2019-04-21T04:32:53.747Z,83.10
2019-04-21T04:38:07.097Z,83.30
2019-04-21T04:40:48.521Z,83.20
2019-04-21T04:43:13.251Z,83.30
2019-04-21T04:45:41.558Z,84.00
2019-04-21T04:48:07.573Z,84.00
2019-04-21T04:50:53.164Z,83.90
2019-04-21T04:53:17.901Z,83.90
2019-04-21T04:58:13.165Z,84.40
2019-04-21T05:03:19.379Z,84.80
2019-04-21T05:09:03.898Z,85.50
2019-04-21T05:16:36.369Z,85.90
2019-04-21T05:19:06.375Z,85.80
2019-04-21T05:21:34.680Z,86.20
2019-04-21T05:23:47.013Z,86.50
2019-04-21T05:26:10.987Z,86.70
2019-04-21T05:28:41.944Z,86.40
2019-04-21T05:31:50.912Z,86.00
2019-04-21T05:34:17.056Z,86.20
2019-04-21T05:37:25.759Z,86.00
2019-04-21T05:40:13.811Z,85.10
2019-04-21T05:42:53.272Z,84.10
2019-04-21T05:45:25.452Z,83.10
2019-04-21T05:48:12.141Z,82.50
2019-04-21T05:50:32.104Z,81.50
2019-04-21T05:53:00.726Z,80.00
2019-04-21T05:55:44.555Z,78.80
2019-04-21T05:58:06.954Z,78.40
2019-04-21T06:00:59.342Z,77.20
2019-04-21T06:05:54.640Z,75.30
2019-04-21T06:08:12.919Z,72.00
2019-04-21T06:10:50.848Z,71.90
2019-04-21T06:13:21.719Z,70.80
2019-04-21T06:15:52.948Z,72.30
2019-04-21T06:18:21.397Z,70.10
2019-04-21T06:20:47.977Z,72.10
2019-04-21T06:23:17.883Z,69.80
2019-04-21T06:26:12.168Z,70.10
2019-04-21T06:28:26.003Z,70.30
2019-04-21T06:31:03.793Z,71.70
2019-04-21T06:33:27.500Z,71.70
2019-04-21T06:36:26.472Z,71.60
2019-04-21T06:46:40.779Z,69.30
2019-04-21T06:49:11.187Z,67.00
2019-04-21T06:51:40.576Z,67.50
2019-04-21T06:54:09.463Z,66.90
2019-04-21T06:56:46.505Z,64.40
2019-04-21T06:59:22.063Z,66.00
2019-04-21T07:01:56.644Z,62.20
2019-04-21T07:04:18.587Z,63.30
2019-04-21T07:11:43.831Z,61.20
2019-04-21T07:16:53.057Z,60.80
2019-04-21T07:19:21.813Z,60.00
2019-04-21T07:21:45.444Z,60.50
2019-04-21T07:24:21.602Z,59.90
2019-04-21T07:26:51.551Z,59.10
2019-04-21T07:29:21.974Z,59.50
2019-04-21T07:34:28.527Z,58.00
2019-04-21T07:36:54.884Z,58.10
2019-04-21T07:39:18.106Z,57.80
2019-04-21T07:41:49.734Z,57.60
2019-04-21T07:44:17.041Z,58.80
2019-04-21T07:46:44.096Z,59.70
2019-04-21T07:49:53.165Z,58.70
2019-04-21T07:52:53.249Z,56.90
2019-04-21T07:57:31.634Z,57.30
2019-04-21T08:02:40.360Z,58.20
2019-04-21T08:10:11.987Z,58.30
2019-04-21T08:12:40.748Z,57.60
2019-04-21T08:15:15.724Z,56.00
2019-04-21T08:17:45.479Z,56.20
2019-04-21T08:20:15.607Z,56.20
2019-04-21T08:22:46.329Z,55.90
2019-04-21T08:25:15.186Z,55.50
2019-04-21T08:27:51.068Z,53.40
2019-04-21T08:30:20.994Z,54.50
2019-04-21T08:37:48.447Z,52.50
2019-04-21T08:40:30.319Z,52.30
2019-04-21T08:42:53.987Z,51.80
2019-04-21T08:45:21.998Z,51.50
2019-04-21T08:47:55.347Z,53.30
2019-04-21T08:50:20.736Z,52.50
2019-04-21T08:52:57.859Z,49.90
2019-04-21T08:55:39.699Z,50.50
2019-04-21T08:58:25.317Z,49.60
2019-04-21T09:01:06.640Z,49.40
2019-04-21T09:03:49.531Z,49.30
2019-04-21T09:06:30.219Z,48.60
2019-04-21T09:08:53.574Z,47.10
2019-04-21T09:11:16.298Z,47.60
2019-04-21T09:13:50.654Z,48.70
2019-04-21T09:16:15.434Z,49.20
2019-04-21T09:18:46.428Z,47.80
2019-04-21T09:21:26.870Z,48.10
2019-04-21T09:23:52.215Z,47.90
2019-04-21T09:26:26.395Z,47.50
2019-04-21T09:28:48.118Z,45.90
2019-04-21T09:31:08.515Z,45.40
2019-04-21T09:33:44.779Z,44.00
2019-04-21T09:36:13.080Z,44.50
2019-04-21T09:38:42.462Z,44.30
2019-04-21T09:41:15.938Z,44.10
2019-04-21T09:43:46.550Z,43.60
2019-04-21T09:46:11.790Z,42.30
2019-04-21T09:48:49.819Z,42.10
2019-04-21T09:51:12.965Z,41.40
2019-04-21T09:53:43.916Z,40.40
2019-04-21T09:56:17.841Z,40.50
2019-04-21T09:58:49.455Z,41.20
2019-04-21T10:01:22.748Z,40.90
2019-04-21T10:03:48.637Z,39.20
2019-04-21T10:06:17.417Z,37.70
2019-04-21T10:08:50.391Z,37.90
2019-04-21T10:11:19.548Z,37.70
2019-04-21T10:13:48.795Z,38.60
2019-04-21T10:16:29.808Z,38.30
2019-04-21T10:18:58.962Z,36.30
2019-04-21T10:21:29.297Z,35.60
2019-04-21T10:23:58.330Z,36.90
2019-04-21T10:26:28.644Z,35.20
2019-04-21T10:29:03.920Z,37.20
2019-04-21T10:31:29.028Z,36.20
2019-04-21T10:33:58.914Z,37.30
2019-04-21T10:36:28.943Z,36.30
2019-04-21T10:38:59.462Z,35.70
2019-04-21T10:41:29.812Z,35.10
2019-04-21T10:43:59.080Z,33.90
2019-04-21T10:46:28.898Z,34.40
2019-04-21T10:48:58.881Z,35.70
2019-04-21T10:51:28.767Z,34.60
2019-04-21T10:53:58.053Z,32.40
2019-04-21T10:56:31.301Z,33.40
2019-04-21T10:58:58.360Z,32.80
2019-04-21T11:01:29.565Z,31.20
2019-04-21T11:04:07.530Z,32.80
2019-04-21T11:06:36.862Z,33.70
2019-04-21T11:09:10.644Z,32.10
2019-04-21T11:11:39.924Z,31.90
2019-04-21T11:14:08.958Z,30.40
2019-04-21T11:16:39.165Z,30.40
2019-04-21T11:19:09.442Z,30.50
2019-04-21T11:21:38.804Z,29.90
2019-04-21T11:24:08.217Z,29.60
2019-04-21T11:26:37.902Z,30.00
2019-04-21T11:29:07.295Z,30.70
2019-04-21T11:31:36.911Z,30.00
2019-04-21T11:34:07.132Z,29.30
2019-04-21T11:36:37.393Z,29.80
2019-04-21T11:39:35.337Z,29.60
2019-04-21T11:41:54.065Z,27.80
2019-04-21T11:44:24.805Z,27.60
2019-04-21T11:46:54.410Z,28.30
2019-04-21T11:49:24.230Z,29.30
2019-04-21T11:51:55.125Z,28.70
2019-04-21T11:54:24.924Z,28.00
2019-04-21T11:56:56.908Z,28.50
2019-04-21T11:59:26.147Z,29.80
2019-04-21T12:01:55.318Z,28.40
2019-04-21T12:04:25.497Z,27.30
2019-04-21T12:06:55.993Z,27.40
2019-04-21T12:09:25.248Z,27.80
2019-04-21T12:11:54.152Z,27.00
2019-04-21T12:14:23.827Z,26.20
2019-04-21T12:16:53.066Z,26.80
2019-04-21T12:19:22.898Z,27.10
2019-04-21T12:22:02.421Z,27.20
2019-04-21T12:24:23.341Z,26.50
2019-04-21T12:26:52.366Z,25.70
2019-04-21T12:29:21.298Z,26.80
2019-04-21T12:32:08.178Z,25.90
2019-04-21T12:34:37.432Z,25.60
2019-04-21T12:37:06.718Z,24.80
2019-04-21T12:39:36.917Z,26.50
2019-04-21T12:42:06.765Z,24.80
2019-04-21T12:44:37.066Z,25.20
2019-04-21T12:47:06.236Z,24.60
2019-04-21T12:49:35.895Z,24.20
2019-04-21T12:52:05.972Z,24.80
2019-04-21T12:54:35.528Z,24.60
2019-04-21T12:57:05.424Z,26.20
2019-04-21T12:59:35.885Z,24.50
2019-04-21T13:02:05.695Z,24.40
2019-04-21T13:04:35.792Z,24.80
2019-04-21T13:07:05.585Z,25.00
2019-04-21T13:09:36.109Z,24.80
2019-04-21T13:12:06.835Z,23.70
2019-04-21T13:14:36.103Z,23.70
2019-04-21T13:17:05.620Z,23.90
2019-04-21T13:19:35.693Z,24.20
2019-04-21T13:22:05.855Z,23.40
2019-04-21T13:24:35.845Z,23.90
2019-04-21T13:27:05.722Z,22.90
2019-04-21T13:29:36.450Z,23.60
2019-04-21T13:32:07.469Z,22.30
2019-04-21T13:34:37.831Z,23.10
2019-04-21T13:37:07.700Z,22.80
2019-04-21T13:40:08.622Z,23.30
2019-04-21T13:42:26.761Z,22.60
2019-04-21T13:44:50.990Z,22.50
2019-04-21T13:47:20.789Z,22.30
2019-04-21T13:49:49.769Z,22.20
2019-04-21T13:52:18.767Z,22.70
2019-04-21T13:54:47.758Z,23.00
2019-04-21T13:57:16.839Z,22.30
2019-04-21T13:59:46.705Z,22.70
2019-04-21T14:02:16.449Z,22.90
2019-04-21T14:04:45.520Z,22.00
2019-04-21T14:07:14.537Z,22.70
2019-04-21T14:09:50.032Z,22.80
2019-04-21T14:12:14.447Z,22.00
2019-04-21T14:14:44.141Z,22.80
2019-04-21T14:17:13.269Z,22.80
2019-04-21T14:19:43.524Z,21.20
2019-04-21T14:22:14.368Z,21.80
2019-04-21T14:24:43.736Z,22.20
2019-04-21T14:27:14.244Z,22.70
2019-04-21T14:29:43.891Z,22.50
2019-04-21T14:32:13.969Z,20.80
2019-04-21T14:34:44.100Z,22.50
2019-04-21T14:37:14.831Z,23.00
2019-04-21T14:39:52.576Z,22.40
2019-04-21T14:42:15.920Z,21.60
2019-04-21T14:44:46.691Z,22.30
2019-04-21T14:47:34.967Z,22.60
2019-04-21T14:50:24.425Z,22.10
2019-04-21T14:53:18.509Z,23.10
2019-04-21T14:55:49.177Z,22.00
2019-04-21T14:58:19.134Z,22.70
2019-04-21T15:01:01.998Z,21.70
2019-04-21T15:03:32.071Z,22.70
2019-04-21T15:06:01.649Z,22.60
2019-04-21T15:08:31.291Z,22.60
2019-04-21T15:11:01.087Z,23.00
2019-04-21T15:13:30.164Z,22.70
2019-04-21T15:16:00.610Z,23.30
2019-04-21T15:18:30.597Z,22.90
2019-04-21T15:20:59.809Z,23.10
2019-04-21T15:23:30.541Z,23.50
2019-04-21T15:25:59.984Z,23.10
2019-04-21T15:28:32.123Z,23.60
2019-04-21T15:31:00.718Z,23.40
2019-04-21T15:33:30.672Z,24.20
2019-04-21T15:36:00.714Z,23.70
2019-04-21T15:38:29.932Z,23.90
2019-04-21T15:41:03.867Z,24.10
2019-04-21T15:43:30.671Z,24.00
2019-04-21T15:46:00.645Z,23.60
2019-04-21T15:48:30.833Z,23.10
2019-04-21T15:51:03.682Z,24.10
2019-04-21T15:53:31.974Z,23.20
2019-04-21T15:56:28.999Z,25.00
2019-04-21T15:59:26.485Z,25.80
2019-04-21T16:02:04.343Z,26.50
2019-04-21T16:04:34.645Z,25.60
2019-04-21T16:07:03.902Z,25.50
2019-04-21T16:09:34.522Z,24.90
2019-04-21T16:12:04.109Z,26.30
2019-04-21T16:14:34.509Z,23.90
2019-04-21T16:17:03.666Z,24.00
2019-04-21T16:19:33.354Z,24.50
2019-04-21T16:22:03.188Z,24.40
2019-04-21T16:24:33.704Z,25.40
2019-04-21T16:27:05.345Z,26.10
2019-04-21T16:29:33.464Z,24.90
2019-04-21T16:32:02.306Z,25.70
2019-04-21T16:34:49.228Z,25.90
2019-04-21T16:37:13.880Z,25.10
2019-04-21T16:39:43.312Z,25.10
2019-04-21T16:42:12.409Z,25.40
2019-04-21T16:44:42.875Z,25.30
2019-04-21T16:47:11.971Z,25.50
2019-04-21T16:49:41.209Z,25.40
2019-04-21T16:52:16.356Z,25.00
2019-04-21T16:54:47.763Z,26.50
2019-04-21T16:57:24.306Z,26.30
2019-04-21T17:00:02.531Z,25.30
2019-04-21T17:02:32.433Z,24.10
2019-04-21T17:05:02.641Z,24.90
2019-04-21T17:07:32.392Z,25.90
2019-04-21T17:10:02.556Z,25.50
2019-04-21T17:12:33.024Z,25.90
2019-04-21T17:15:18.814Z,25.20
2019-04-21T17:17:55.435Z,25.70
2019-04-21T17:20:15.682Z,25.30
2019-04-21T17:22:35.424Z,25.20
2019-04-21T17:25:04.822Z,26.00
2019-04-21T17:27:35.518Z,25.80
2019-04-21T17:30:06.569Z,25.90
2019-04-21T17:32:41.984Z,25.70
2019-04-21T17:35:08.085Z,25.20
2019-04-21T17:37:38.304Z,24.50
2019-04-21T17:40:09.040Z,24.70
2019-04-21T17:42:46.380Z,25.30
2019-04-21T17:45:09.224Z,25.70
2019-04-21T17:47:46.803Z,25.90
2019-04-21T17:50:31.612Z,26.40
2019-04-21T17:53:10.295Z,27.50
2019-04-21T17:55:40.624Z,27.50
2019-04-21T17:58:24.742Z,27.10
2019-04-21T18:03:40.275Z,28.00
2019-04-21T18:05:59.583Z,28.80
2019-04-21T18:08:32.529Z,29.60
2019-04-21T18:10:54.367Z,30.20
2019-04-21T18:13:19.184Z,30.30
2019-04-21T18:15:55.700Z,30.40
2019-04-21T18:18:16.693Z,30.00
2019-04-21T18:20:53.604Z,30.90
2019-04-21T18:23:52.136Z,32.20
2019-04-21T18:26:25.741Z,33.00
2019-04-21T18:28:41.446Z,32.40
2019-04-21T18:31:14.869Z,33.90
2019-04-21T18:33:49.425Z,33.30
2019-04-21T18:36:34.064Z,33.80
2019-04-21T18:39:30.037Z,33.80
2019-04-21T18:42:06.416Z,34.30
2019-04-21T18:45:20.706Z,34.40
2019-04-21T18:47:39.891Z,34.90
2019-04-21T18:50:18.598Z,36.10
2019-04-21T18:53:04.845Z,38.00
2019-04-21T18:55:32.282Z,37.10
2019-04-21T18:57:54.924Z,37.10
2019-04-21T19:00:30.670Z,37.80
2019-04-21T19:02:56.662Z,38.50
2019-04-21T19:05:27.969Z,40.20
2019-04-21T19:08:15.180Z,39.40
2019-04-21T19:10:48.565Z,40.00
2019-04-21T19:16:10.067Z,40.90
2019-04-21T19:18:38.774Z,40.60
2019-04-21T19:20:48.984Z,41.40
2019-04-21T19:23:21.548Z,42.00
2019-04-21T19:25:59.361Z,42.60
2019-04-21T19:28:18.195Z,42.00
2019-04-21T19:31:09.215Z,43.80
2019-04-21T19:33:22.418Z,44.10
2019-04-21T19:35:35.164Z,44.70
2019-04-21T19:38:08.392Z,45.10
2019-04-21T19:40:56.568Z,45.30
2019-04-21T19:43:23.188Z,45.60
2019-04-21T19:45:48.664Z,45.80
2019-04-21T19:48:25.259Z,44.80
2019-04-21T19:50:57.153Z,45.60
2019-04-21T19:53:24.294Z,44.90
2019-04-21T19:55:40.473Z,45.40
2019-04-21T19:58:10.759Z,45.10
2019-04-21T20:00:40.212Z,44.70
2019-04-21T20:03:10.473Z,45.30
2019-04-21T20:05:47.597Z,45.10
2019-04-21T20:08:25.020Z,45.30
2019-04-21T20:11:01.159Z,47.40
2019-04-21T20:13:42.112Z,46.20
2019-04-21T20:16:03.878Z,47.10
2019-04-21T20:18:24.444Z,47.20
2019-04-21T20:20:44.277Z,48.10
2019-04-21T20:23:19.288Z,46.90
2019-04-21T20:25:49.842Z,47.60
2019-04-21T20:28:27.443Z,47.90
2019-04-21T20:31:08.297Z,47.40
2019-04-21T20:33:46.912Z,48.30
2019-04-21T20:36:11.885Z,48.30
2019-04-21T20:38:31.305Z,49.00
2019-04-21T20:40:59.260Z,50.20
2019-04-21T20:43:53.374Z,50.00
2019-04-21T20:46:07.661Z,50.00
2019-04-21T20:48:41.438Z,50.40
2019-04-21T20:51:18.018Z,49.90
2019-04-21T20:53:41.528Z,50.20
2019-04-21T20:56:02.426Z,51.20
2019-04-21T20:58:41.394Z,50.20
2019-04-21T21:01:25.664Z,50.40
2019-04-21T21:03:44.384Z,50.20
2019-04-21T21:06:16.124Z,50.40
2019-04-21T21:08:46.855Z,51.00
2019-04-21T21:11:21.467Z,52.10
2019-04-21T21:13:47.817Z,51.10
2019-04-21T21:16:20.071Z,52.10
2019-04-21T21:21:23.468Z,52.20
2019-04-21T21:24:00.576Z,53.10
2019-04-21T21:26:25.779Z,50.40
2019-04-21T21:28:45.893Z,49.90
2019-04-21T21:31:25.075Z,48.90
2019-04-21T21:34:02.289Z,48.80
2019-04-21T21:36:30.472Z,49.40
2019-04-21T21:38:55.917Z,50.00
2019-04-21T21:41:16.638Z,50.40
2019-04-21T21:43:39.457Z,51.30
2019-04-21T21:46:26.751Z,51.40
2019-04-21T21:48:51.667Z,52.30
2019-04-21T21:51:18.925Z,53.20
2019-04-21T21:53:42.560Z,53.70
2019-04-21T21:56:11.860Z,52.60
2019-04-21T21:58:43.912Z,53.80
2019-04-21T22:01:14.785Z,54.70
2019-04-21T22:03:46.702Z,54.30
2019-04-21T22:06:19.231Z,54.00
2019-04-21T22:08:46.137Z,54.00
2019-04-21T22:11:15.849Z,53.10
2019-04-21T22:13:53.146Z,53.80
2019-04-21T22:16:18.155Z,54.90
2019-04-21T22:19:08.119Z,54.70
2019-04-21T22:21:38.602Z,54.50
2019-04-21T22:23:59.412Z,54.90
2019-04-21T22:26:19.033Z,54.50
2019-04-21T22:28:48.101Z,54.20
2019-04-21T22:31:22.644Z,54.00
2019-04-21T22:33:53.250Z,54.80
2019-04-21T22:36:33.026Z,55.40
2019-04-21T22:39:11.837Z,56.50
2019-04-21T22:41:28.654Z,54.70
2019-04-21T22:43:53.782Z,54.60
2019-04-21T22:46:22.501Z,52.30
2019-04-21T22:48:55.993Z,53.50
2019-04-21T22:51:30.516Z,54.40
2019-04-21T22:53:55.823Z,53.50
2019-04-21T22:56:26.875Z,54.50
2019-04-21T22:58:55.025Z,54.80
2019-04-21T23:01:34.872Z,55.00
2019-04-21T23:04:00.881Z,55.50
2019-04-21T23:06:30.826Z,56.10
2019-04-21T23:08:57.162Z,54.40
2019-04-21T23:11:29.258Z,56.10
2019-04-21T23:14:04.097Z,55.90
2019-04-21T23:16:35.217Z,56.00
2019-04-21T23:19:16.993Z,57.20
2019-04-21T23:21:51.525Z,57.00
2019-04-21T23:24:16.111Z,57.80
2019-04-21T23:26:48.836Z,57.70
2019-04-21T23:29:17.338Z,58.50
2019-04-21T23:31:51.261Z,58.40
2019-04-21T23:34:04.460Z,58.80
2019-04-21T23:36:35.529Z,59.30
2019-04-21T23:39:13.196Z,59.30
2019-04-21T23:41:43.508Z,59.00
2019-04-21T23:44:11.365Z,59.90
2019-04-21T23:46:39.154Z,58.60
2019-04-21T23:49:24.293Z,60.00
2019-04-21T23:51:47.700Z,59.70
2019-04-21T23:54:11.324Z,59.30
2019-04-21T23:56:44.002Z,59.60
2019-04-21T23:59:14.668Z,59.50
